Time;durP1;ratioP1;P1;durP2;ratioP2;P2;SDS_P1;SDS_P2;PMS_P1;PMS_P2;Temp;Humidity;BMP_temperature;BMP_pressure;BME280_temperature;BME280_humidity;BME280_pressure;Samples;Min_cycle;Max_cycle;Signal;HPM_P1;HPM_P2
2023/01/16 00:01:11;;;;;;;7.13;3.00;;;;;;;;;;6105729;19;20014;-69
2023/01/16 00:03:18;;;;;;;6.03;2.95;;;;;;;;;;6110307;19;20262;-71
2023/01/16 00:05:23;;;;;;;6.10;3.10;;;;;;;;;;6109626;19;20414;-70
2023/01/16 00:07:33;;;;;;;7.88;3.50;;;;;;;;;;6107816;19;20006;-70
2023/01/16 00:09:38;;;;;;;6.18;3.00;;;;;;;;;;6107596;19;20042;-70
2023/01/16 00:11:44;;;;;;;8.82;3.10;;;;;;;;;;6105194;19;20697;-70
2023/01/16 00:13:49;;;;;;;6.60;3.53;;;;;;;;;;6108189;19;20011;-70
2023/01/16 00:15:54;;;;;;;6.90;2.78;;;;;;;;;;6105620;19;20727;-70
2023/01/16 00:18:05;;;;;;;7.25;3.50;;;;;;;;;;6104719;19;20015;-70
2023/01/16 00:20:14;;;;;;;6.38;3.03;;;;;;;;;;6104693;19;20013;-71
2023/01/16 00:22:20;;;;;;;7.50;2.78;;;;;;;;;;6105510;19;20010;-71
2023/01/16 00:24:25;;;;;;;5.53;3.80;;;;;;;;;;6106671;19;20036;-70
2023/01/16 00:26:31;;;;;;;5.10;2.40;;;;;;;;;;6106315;19;20018;-70
2023/01/16 00:28:37;;;;;;;6.03;3.30;;;;;;;;;;6106589;19;20025;-70
2023/01/16 00:30:43;;;;;;;6.82;3.38;;;;;;;;;;6104191;19;20400;-70
2023/01/16 00:32:48;;;;;;;8.70;3.50;;;;;;;;;;6103523;19;20021;-70
2023/01/16 00:34:55;;;;;;;7.07;3.28;;;;;;;;;;6107125;19;20665;-70
2023/01/16 00:37:00;;;;;;;7.43;3.63;;;;;;;;;;6107946;19;20090;-70
2023/01/16 00:39:05;;;;;;;5.97;2.70;;;;;;;;;;6105037;19;20006;-69
2023/01/16 00:41:11;;;;;;;5.30;2.72;;;;;;;;;;6103568;19;20568;-71
2023/01/16 00:43:17;;;;;;;6.00;3.65;;;;;;;;;;6104351;19;20018;-71
2023/01/16 00:45:22;;;;;;;9.57;2.97;;;;;;;;;;6106023;19;20019;-71
2023/01/16 00:47:26;;;;;;;9.82;4.13;;;;;;;;;;6106119;19;20459;-71
2023/01/16 00:49:35;;;;;;;6.05;3.67;;;;;;;;;;6104603;19;20010;-69
2023/01/16 00:51:42;;;;;;;8.43;3.60;;;;;;;;;;6106358;19;20764;-70
2023/01/16 00:53:47;;;;;;;7.50;3.38;;;;;;;;;;6100123;19;20466;-70
2023/01/16 00:55:53;;;;;;;10.88;3.80;;;;;;;;;;6107150;19;20349;-69
2023/01/16 00:57:58;;;;;;;13.45;3.20;;;;;;;;;;6105144;19;20011;-69
2023/01/16 01:00:03;;;;;;;8.05;3.90;;;;;;;;;;6106099;19;20014;-70
2023/01/16 01:02:08;;;;;;;12.18;4.00;;;;;;;;;;6106308;19;20014;-70
2023/01/16 01:04:16;;;;;;;10.48;4.07;;;;;;;;;;6108651;19;20078;-70
2023/01/16 01:06:21;;;;;;;6.95;3.50;;;;;;;;;;6107981;19;20020;-69
2023/01/16 01:08:31;;;;;;;9.10;3.95;;;;;;;;;;6104778;19;20011;-70
2023/01/16 01:10:39;;;;;;;8.95;3.67;;;;;;;;;;6104899;19;20011;-70
2023/01/16 01:12:44;;;;;;;10.93;4.25;;;;;;;;;;6105057;19;20492;-71
2023/01/16 01:14:49;;;;;;;11.43;4.75;;;;;;;;;;6105214;19;20010;-70
2023/01/16 01:16:54;;;;;;;12.90;5.60;;;;;;;;;;6104786;19;20342;-70
2023/01/16 01:18:59;;;;;;;17.23;5.90;;;;;;;;;;6106581;19;20006;-71
2023/01/16 01:21:06;;;;;;;12.65;5.45;;;;;;;;;;6102967;19;20025;-70
2023/01/16 01:23:11;;;;;;;15.48;7.10;;;;;;;;;;6102648;19;20108;-72
2023/01/16 01:25:19;;;;;;;16.45;6.40;;;;;;;;;;6105154;19;20019;-71
2023/01/16 01:27:24;;;;;;;15.65;7.07;;;;;;;;;;6105448;19;20042;-70
2023/01/16 01:29:29;;;;;;;17.48;6.13;;;;;;;;;;6103536;19;20403;-70
2023/01/16 01:31:34;;;;;;;12.35;6.32;;;;;;;;;;6106132;19;20010;-70
2023/01/16 01:33:39;;;;;;;13.38;6.85;;;;;;;;;;6103066;19;20346;-70
2023/01/16 01:35:44;;;;;;;13.27;6.25;;;;;;;;;;6103531;19;20006;-70
2023/01/16 01:37:49;;;;;;;12.23;6.43;;;;;;;;;;6103016;19;20034;-71
2023/01/16 01:39:54;;;;;;;13.20;5.78;;;;;;;;;;6103968;19;20010;-70
2023/01/16 01:44:53;;;;;;;15.85;6.43;;;;;;;;;;6102678;19;20019;-70
2023/01/16 01:46:57;;;;;;;11.55;4.57;;;;;;;;;;6104957;19;20011;-71
2023/01/16 01:49:10;;;;;;;14.52;5.35;;;;;;;;;;6104949;19;20135;-70
2023/01/16 01:51:18;;;;;;;10.60;5.90;;;;;;;;;;6100785;19;20018;-70
2023/01/16 01:53:27;;;;;;;11.88;5.72;;;;;;;;;;6095648;19;20501;-71
2023/01/16 01:55:33;;;;;;;15.50;6.78;;;;;;;;;;6103595;19;20474;-70
2023/01/16 01:57:44;;;;;;;13.93;6.75;;;;;;;;;;6104733;19;20026;-70
2023/01/16 01:59:52;;;;;;;12.45;6.00;;;;;;;;;;6101595;19;20011;-70
2023/01/16 02:01:58;;;;;;;17.35;8.13;;;;;;;;;;6103101;19;20056;-70
2023/01/16 02:04:07;;;;;;;11.93;6.75;;;;;;;;;;6103139;19;20014;-70
2023/01/16 02:06:18;;;;;;;16.17;6.50;;;;;;;;;;6102702;19;20011;-70
2023/01/16 02:08:25;;;;;;;11.23;5.50;;;;;;;;;;6102157;19;20426;-70
2023/01/16 02:10:36;;;;;;;14.32;6.65;;;;;;;;;;6102255;19;20008;-70
2023/01/16 02:12:44;;;;;;;12.23;5.20;;;;;;;;;;6100656;19;20018;-70
2023/01/16 02:14:50;;;;;;;12.10;5.50;;;;;;;;;;6102557;19;20025;-70
2023/01/16 02:19:23;;;;;;;12.82;4.75;;;;;;;;;;6102275;19;20010;-72
2023/01/16 02:21:46;;;;;;;12.52;3.92;;;;;;;;;;6101981;19;20352;-71
2023/01/16 02:24:11;;;;;;;13.73;4.13;;;;;;;;;;6100781;19;20121;-71
2023/01/16 02:26:38;;;;;;;9.73;3.58;;;;;;;;;;6103965;19;20359;-70
2023/01/16 02:29:01;;;;;;;9.73;3.75;;;;;;;;;;6102325;19;20039;-71
2023/01/16 02:31:13;;;;;;;9.35;4.10;;;;;;;;;;6100448;19;20121;-69
2023/01/16 02:33:23;;;;;;;10.93;2.90;;;;;;;;;;6102938;19;20038;-71
2023/01/16 02:35:46;;;;;;;7.10;2.75;;;;;;;;;;6101430;19;20540;-71
2023/01/16 02:37:55;;;;;;;9.07;3.35;;;;;;;;;;6102459;19;20010;-70
2023/01/16 02:40:10;;;;;;;11.55;3.30;;;;;;;;;;6102221;19;20487;-70
2023/01/16 02:42:21;;;;;;;7.47;3.17;;;;;;;;;;6102752;19;20122;-70
2023/01/16 02:44:30;;;;;;;11.70;3.05;;;;;;;;;;6102198;19;20021;-72
2023/01/16 02:46:49;;;;;;;6.15;3.10;;;;;;;;;;6102092;19;20007;-71
2023/01/16 02:49:04;;;;;;;4.78;2.33;;;;;;;;;;6104507;19;20034;-70
2023/01/16 02:51:14;;;;;;;9.48;2.78;;;;;;;;;;6101845;19;20014;-70
2023/01/16 02:53:23;;;;;;;5.72;2.50;;;;;;;;;;6099704;19;20038;-70
2023/01/16 02:55:34;;;;;;;5.88;2.63;;;;;;;;;;6102182;19;20014;-70
2023/01/16 02:57:43;;;;;;;6.25;2.72;;;;;;;;;;6101984;19;20082;-70
2023/01/16 02:59:48;;;;;;;8.15;2.80;;;;;;;;;;6103029;19;20944;-71
2023/01/16 03:01:55;;;;;;;8.63;2.75;;;;;;;;;;6102163;19;20094;-71
2023/01/16 03:04:08;;;;;;;11.07;3.35;;;;;;;;;;6101252;19;20420;-70
2023/01/16 03:06:36;;;;;;;9.07;3.78;;;;;;;;;;6102179;19;20020;-70
2023/01/16 03:08:46;;;;;;;11.32;3.20;;;;;;;;;;6097379;19;20041;-71
2023/01/16 03:11:06;;;;;;;9.60;3.72;;;;;;;;;;6103394;19;20017;-70
2023/01/16 03:13:20;;;;;;;9.35;3.35;;;;;;;;;;6095415;19;20036;-71
2023/01/16 03:15:29;;;;;;;12.82;3.78;;;;;;;;;;6101188;19;20022;-71
2023/01/16 03:17:42;;;;;;;7.50;3.67;;;;;;;;;;6102182;19;20003;-71
2023/01/16 03:19:57;;;;;;;9.15;3.70;;;;;;;;;;6102214;19;20042;-70
2023/01/16 03:22:13;;;;;;;7.60;3.65;;;;;;;;;;6101992;19;20369;-70
2023/01/16 03:24:29;;;;;;;6.18;3.13;;;;;;;;;;6099578;19;20465;-71
2023/01/16 03:26:39;;;;;;;10.95;3.80;;;;;;;;;;6102114;19;20022;-70
2023/01/16 03:28:54;;;;;;;8.00;3.67;;;;;;;;;;6099399;19;20018;-70
2023/01/16 03:31:05;;;;;;;7.38;3.42;;;;;;;;;;6105813;19;20011;-71
2023/01/16 03:33:17;;;;;;;10.23;3.72;;;;;;;;;;6102730;19;20013;-71
2023/01/16 03:35:25;;;;;;;8.90;3.53;;;;;;;;;;6108155;19;20011;-70
2023/01/16 03:37:36;;;;;;;7.70;3.60;;;;;;;;;;6108154;19;20166;-70
2023/01/16 03:39:46;;;;;;;7.63;3.70;;;;;;;;;;6109275;19;20011;-70
2023/01/16 03:41:52;;;;;;;12.00;3.33;;;;;;;;;;6110401;19;20027;-71
2023/01/16 03:44:03;;;;;;;6.00;3.13;;;;;;;;;;6110275;19;20014;-70
2023/01/16 03:46:10;;;;;;;7.20;3.13;;;;;;;;;;6108750;19;20050;-70
2023/01/16 03:48:23;;;;;;;6.30;2.90;;;;;;;;;;6089256;19;20366;-71
2023/01/16 03:50:28;;;;;;;9.07;3.55;;;;;;;;;;6109656;19;20018;-70
2023/01/16 03:52:46;;;;;;;5.13;2.83;;;;;;;;;;6107123;19;20492;-71
2023/01/16 03:54:55;;;;;;;7.75;2.75;;;;;;;;;;6110432;19;20019;-70
2023/01/16 03:57:09;;;;;;;8.13;2.85;;;;;;;;;;6110412;19;20379;-71
2023/01/16 03:59:14;;;;;;;5.10;2.75;;;;;;;;;;6105674;19;20497;-71
2023/01/16 04:01:27;;;;;;;6.38;2.80;;;;;;;;;;6108502;19;20463;-71
2023/01/16 04:03:39;;;;;;;5.93;2.42;;;;;;;;;;6109303;19;20047;-69
2023/01/16 04:05:48;;;;;;;7.85;2.70;;;;;;;;;;6106676;19;20067;-70
2023/01/16 04:07:57;;;;;;;10.88;3.33;;;;;;;;;;6103007;19;20014;-71
2023/01/16 04:10:07;;;;;;;5.32;2.80;;;;;;;;;;6107744;19;20439;-70
2023/01/16 04:12:17;;;;;;;7.18;2.85;;;;;;;;;;6106147;19;20014;-71
2023/01/16 04:14:24;;;;;;;6.18;3.60;;;;;;;;;;6105450;19;20747;-71
2023/01/16 04:16:29;;;;;;;8.75;3.15;;;;;;;;;;6106336;19;20018;-71
2023/01/16 04:18:38;;;;;;;4.20;2.80;;;;;;;;;;6104602;19;20049;-71
2023/01/16 04:20:47;;;;;;;7.40;2.67;;;;;;;;;;6101206;19;20038;-72
2023/01/16 04:22:52;;;;;;;5.10;2.53;;;;;;;;;;6106174;19;20038;-70
2023/01/16 04:24:59;;;;;;;6.70;2.53;;;;;;;;;;6105903;19;20015;-71
2023/01/16 04:27:06;;;;;;;8.10;2.50;;;;;;;;;;6103746;19;20351;-70
2023/01/16 04:29:14;;;;;;;9.82;2.30;;;;;;;;;;6107628;19;20047;-71
2023/01/16 04:31:19;;;;;;;6.18;2.35;;;;;;;;;;6103141;19;20029;-71
2023/01/16 04:33:24;;;;;;;4.97;2.15;;;;;;;;;;6104427;19;20020;-70
2023/01/16 04:35:32;;;;;;;3.85;2.38;;;;;;;;;;6105396;19;20534;-70
2023/01/16 04:37:37;;;;;;;8.00;2.45;;;;;;;;;;6107751;19;20570;-70
2023/01/16 04:39:43;;;;;;;7.65;2.38;;;;;;;;;;6109307;19;20085;-71
2023/01/16 04:41:50;;;;;;;2.70;1.90;;;;;;;;;;6105774;19;20029;-71
2023/01/16 04:43:55;;;;;;;8.43;2.42;;;;;;;;;;6107204;19;20014;-71
2023/01/16 04:46:00;;;;;;;2.70;1.80;;;;;;;;;;6107573;19;20018;-71
2023/01/16 04:48:05;;;;;;;8.63;2.30;;;;;;;;;;6108119;19;20010;-70
2023/01/16 04:50:14;;;;;;;5.28;2.35;;;;;;;;;;6104931;19;20027;-70
2023/01/16 04:52:21;;;;;;;7.97;2.25;;;;;;;;;;6103649;19;20014;-71
2023/01/16 04:54:26;;;;;;;3.20;2.05;;;;;;;;;;6103018;19;20335;-71
2023/01/16 04:56:35;;;;;;;4.60;1.92;;;;;;;;;;6103541;19;20412;-70
2023/01/16 04:58:40;;;;;;;8.52;2.63;;;;;;;;;;6104123;19;20011;-72
2023/01/16 05:00:45;;;;;;;7.30;2.30;;;;;;;;;;6104893;19;20027;-71
2023/01/16 05:02:50;;;;;;;3.00;1.90;;;;;;;;;;6105245;19;20010;-71
2023/01/16 05:04:55;;;;;;;9.55;2.78;;;;;;;;;;6105867;19;20223;-70
2023/01/16 05:07:00;;;;;;;5.93;2.30;;;;;;;;;;6105091;19;20014;-71
2023/01/16 05:09:11;;;;;;;5.18;2.08;;;;;;;;;;6106117;19;20027;-71
2023/01/16 05:11:16;;;;;;;9.38;2.53;;;;;;;;;;6099621;19;20018;-70
2023/01/16 05:13:21;;;;;;;4.50;3.25;;;;;;;;;;6105408;19;20011;-70
2023/01/16 05:15:26;;;;;;;5.88;2.08;;;;;;;;;;6100063;19;20034;-71
2023/01/16 05:17:32;;;;;;;6.05;2.17;;;;;;;;;;6104710;19;20037;-72
2023/01/16 05:19:37;;;;;;;5.35;3.03;;;;;;;;;;6106039;19;20441;-70
2023/01/16 05:21:42;;;;;;;6.22;2.28;;;;;;;;;;6101179;19;20023;-70
2023/01/16 05:23:47;;;;;;;5.57;2.58;;;;;;;;;;6103702;19;20576;-70
2023/01/16 05:25:54;;;;;;;4.78;2.22;;;;;;;;;;6104536;19;20066;-72
2023/01/16 05:27:59;;;;;;;5.18;2.53;;;;;;;;;;6104915;19;20014;-71
2023/01/16 05:30:04;;;;;;;5.68;1.92;;;;;;;;;;6105945;19;20029;-71
2023/01/16 05:32:09;;;;;;;7.65;2.78;;;;;;;;;;6105393;19;20022;-71
2023/01/16 05:34:14;;;;;;;3.60;2.13;;;;;;;;;;6103812;19;20025;-71
2023/01/16 05:36:19;;;;;;;2.63;2.00;;;;;;;;;;6104497;19;20031;-71
2023/01/16 05:38:24;;;;;;;6.85;2.42;;;;;;;;;;6102315;19;20018;-71
2023/01/16 05:40:29;;;;;;;7.03;2.47;;;;;;;;;;6102853;19;20409;-70
2023/01/16 05:42:37;;;;;;;9.52;2.60;;;;;;;;;;6101386;19;20374;-70
2023/01/16 05:44:49;;;;;;;5.40;2.53;;;;;;;;;;6102585;19;20010;-69
2023/01/16 05:46:54;;;;;;;6.53;2.20;;;;;;;;;;6102427;19;20070;-70
2023/01/16 05:48:59;;;;;;;4.97;2.13;;;;;;;;;;6106104;19;20022;-70
2023/01/16 05:51:04;;;;;;;5.32;2.40;;;;;;;;;;6104960;19;20086;-68
2023/01/16 05:53:10;;;;;;;7.55;3.70;;;;;;;;;;6096239;19;20819;-68
2023/01/16 05:55:15;;;;;;;6.65;2.55;;;;;;;;;;6107038;19;20018;-69
2023/01/16 05:57:20;;;;;;;1.83;1.52;;;;;;;;;;6102542;19;20033;-69
2023/01/16 05:59:27;;;;;;;3.97;2.10;;;;;;;;;;6104847;19;20023;-69
2023/01/16 06:01:32;;;;;;;7.00;2.40;;;;;;;;;;6104316;19;20007;-69
2023/01/16 06:03:37;;;;;;;6.13;2.45;;;;;;;;;;6103763;19;20475;-68
2023/01/16 06:05:42;;;;;;;6.43;2.33;;;;;;;;;;6105888;19;20007;-70
2023/01/16 06:07:47;;;;;;;4.82;2.22;;;;;;;;;;6106664;19;20361;-69
2023/01/16 06:09:51;;;;;;;5.07;2.30;;;;;;;;;;6105869;19;20452;-69
2023/01/16 06:11:56;;;;;;;6.53;2.42;;;;;;;;;;6104029;19;20374;-69
2023/01/16 06:14:04;;;;;;;8.98;2.30;;;;;;;;;;6103427;19;20113;-69
2023/01/16 06:16:12;;;;;;;6.85;1.95;;;;;;;;;;6104322;19;20019;-70
2023/01/16 06:18:17;;;;;;;4.95;2.05;;;;;;;;;;6103897;19;20007;-70
2023/01/16 06:20:22;;;;;;;6.55;2.45;;;;;;;;;;6101335;19;20059;-70
2023/01/16 06:22:27;;;;;;;5.47;2.53;;;;;;;;;;6102115;19;20014;-71
2023/01/16 06:24:35;;;;;;;4.22;2.08;;;;;;;;;;6103216;19;20015;-70
2023/01/16 06:26:41;;;;;;;1.92;1.75;;;;;;;;;;6104545;19;20007;-70
2023/01/16 06:28:46;;;;;;;4.25;1.98;;;;;;;;;;6103271;19;20017;-71
2023/01/16 06:30:53;;;;;;;6.88;2.47;;;;;;;;;;6102083;19;20015;-69
2023/01/16 06:33:03;;;;;;;2.60;1.63;;;;;;;;;;6104175;19;20381;-68
2023/01/16 06:35:10;;;;;;;8.05;2.17;;;;;;;;;;6099503;19;20440;-69
2023/01/16 06:37:15;;;;;;;9.77;2.85;;;;;;;;;;6105071;19;20090;-69
2023/01/16 06:39:20;;;;;;;4.40;2.13;;;;;;;;;;6103984;19;20014;-70
2023/01/16 06:41:25;;;;;;;8.77;2.50;;;;;;;;;;6103064;19;23029;-71
2023/01/16 06:43:33;;;;;;;7.47;2.03;;;;;;;;;;6103183;19;20020;-70
2023/01/16 06:45:38;;;;;;;4.97;2.00;;;;;;;;;;6104106;19;20017;-70
2023/01/16 06:47:43;;;;;;;4.50;2.42;;;;;;;;;;6103342;19;20011;-71
2023/01/16 06:49:50;;;;;;;6.55;2.58;;;;;;;;;;6103981;19;20455;-71
2023/01/16 06:51:55;;;;;;;6.70;2.30;;;;;;;;;;6102758;19;20066;-70
2023/01/16 06:54:02;;;;;;;8.32;2.50;;;;;;;;;;6097984;19;20647;-71
2023/01/16 06:56:08;;;;;;;4.05;2.53;;;;;;;;;;6103040;19;20031;-70
2023/01/16 06:58:15;;;;;;;2.33;1.90;;;;;;;;;;6102114;19;20013;-70
2023/01/16 07:00:20;;;;;;;7.88;2.75;;;;;;;;;;6102908;19;20093;-71
2023/01/16 07:02:25;;;;;;;9.32;2.60;;;;;;;;;;6103176;19;20011;-72
2023/01/16 07:04:33;;;;;;;3.15;1.75;;;;;;;;;;6102992;19;20482;-71
2023/01/16 07:06:41;;;;;;;10.95;2.35;;;;;;;;;;6102470;19;20475;-71
2023/01/16 07:08:47;;;;;;;5.43;1.90;;;;;;;;;;6105527;19;20038;-70
2023/01/16 07:10:52;;;;;;;4.95;2.25;;;;;;;;;;6102555;19;20082;-69
2023/01/16 07:12:57;;;;;;;3.72;1.90;;;;;;;;;;6100608;19;20010;-70
2023/01/16 07:24:21;;;;;;;6.93;2.22;;;;;;;;;;6099367;19;20007;-70
2023/01/16 07:26:26;;;;;;;4.50;1.58;;;;;;;;;;6100597;19;20031;-69
2023/01/16 07:28:33;;;;;;;3.75;1.67;;;;;;;;;;6102355;19;20082;-69
2023/01/16 07:30:39;;;;;;;11.10;2.67;;;;;;;;;;6100709;19;20382;-69
2023/01/16 07:32:45;;;;;;;4.18;2.35;;;;;;;;;;6102364;19;20941;-69
2023/01/16 07:34:50;;;;;;;6.00;1.80;;;;;;;;;;6100930;19;20013;-69
2023/01/16 07:36:54;;;;;;;7.70;2.67;;;;;;;;;;6102882;19;20006;-69
2023/01/16 07:39:02;;;;;;;5.18;1.98;;;;;;;;;;6101954;19;20011;-69
2023/01/16 07:41:07;;;;;;;3.13;1.80;;;;;;;;;;6098496;19;20109;-69
2023/01/16 07:43:13;;;;;;;4.57;2.08;;;;;;;;;;6103181;19;20031;-70
2023/01/16 07:45:18;;;;;;;4.15;1.92;;;;;;;;;;6105183;19;20010;-69
2023/01/16 07:47:23;;;;;;;5.85;2.75;;;;;;;;;;6103082;19;20558;-69
2023/01/16 07:49:27;;;;;;;4.68;1.90;;;;;;;;;;6102660;19;20065;-69
2023/01/16 07:51:32;;;;;;;4.43;1.58;;;;;;;;;;6102887;19;20047;-71
2023/01/16 07:53:38;;;;;;;5.07;1.98;;;;;;;;;;6093679;19;20015;-69
2023/01/16 07:55:46;;;;;;;4.88;2.33;;;;;;;;;;6103204;19;20463;-69
2023/01/16 07:57:51;;;;;;;5.78;2.10;;;;;;;;;;6103725;19;20006;-69
2023/01/16 07:59:56;;;;;;;3.28;1.92;;;;;;;;;;6102725;19;20251;-70
2023/01/16 08:02:01;;;;;;;5.40;2.38;;;;;;;;;;6101694;19;20306;-69
2023/01/16 08:04:06;;;;;;;3.30;1.60;;;;;;;;;;6103096;19;20010;-70
2023/01/16 08:06:14;;;;;;;3.75;1.90;;;;;;;;;;6104126;19;20034;-70
2023/01/16 08:08:20;;;;;;;4.72;2.35;;;;;;;;;;6104578;19;20014;-70
2023/01/16 08:10:25;;;;;;;6.72;2.80;;;;;;;;;;6104221;19;20391;-70
2023/01/16 08:12:32;;;;;;;1.52;1.38;;;;;;;;;;6102882;19;20011;-69
2023/01/16 08:14:38;;;;;;;3.25;1.67;;;;;;;;;;6103433;19;20015;-70
2023/01/16 08:16:45;;;;;;;6.63;1.73;;;;;;;;;;6105844;19;20007;-70
2023/01/16 08:18:50;;;;;;;3.88;2.13;;;;;;;;;;6110365;19;20490;-70
2023/01/16 08:20:55;;;;;;;9.88;2.15;;;;;;;;;;6104498;19;20045;-69
2023/01/16 08:23:00;;;;;;;2.63;1.83;;;;;;;;;;6107986;19;20045;-68
2023/01/16 08:25:06;;;;;;;6.32;1.90;;;;;;;;;;6105875;19;20078;-68
2023/01/16 08:27:13;;;;;;;1.90;1.30;;;;;;;;;;6088369;19;20018;-70
2023/01/16 08:29:21;;;;;;;3.53;1.90;;;;;;;;;;6108797;19;20010;-67
2023/01/16 08:31:26;;;;;;;2.80;1.92;;;;;;;;;;6108189;19;20033;-68
2023/01/16 08:33:31;;;;;;;3.53;1.70;;;;;;;;;;6108268;19;20098;-68
2023/01/16 08:35:36;;;;;;;8.65;2.40;;;;;;;;;;6107499;19;20003;-68
2023/01/16 08:37:50;;;;;;;5.75;2.38;;;;;;;;;;6106900;19;20015;-68
2023/01/16 08:39:55;;;;;;;7.13;3.37;;;;;;;;;;6109192;19;20014;-71
2023/01/16 08:51:28;;;;;;;2.65;1.88;;;;;;;;;;6102466;19;20015;-69
2023/01/16 08:53:34;;;;;;;3.83;2.28;;;;;;;;;;6105971;19;20018;-69
2023/01/16 08:55:39;;;;;;;6.28;2.42;;;;;;;;;;6108112;19;20463;-68
2023/01/16 08:57:46;;;;;;;3.72;1.90;;;;;;;;;;6107028;19;20006;-69
2023/01/16 08:59:53;;;;;;;2.97;2.17;;;;;;;;;;6107558;19;20010;-69
2023/01/16 09:02:00;;;;;;;1.65;1.45;;;;;;;;;;6107841;19;20049;-69
2023/01/16 09:04:05;;;;;;;3.40;1.98;;;;;;;;;;6109648;19;20085;-69
2023/01/16 09:06:13;;;;;;;6.80;2.92;;;;;;;;;;6106033;19;20018;-69
2023/01/16 09:08:18;;;;;;;4.35;2.08;;;;;;;;;;6109081;19;20102;-69
2023/01/16 09:10:24;;;;;;;6.28;2.45;;;;;;;;;;6107174;19;20050;-70
2023/01/16 09:14:46;;;;;;;6.63;3.25;;;;;;;;;;6107559;19;20014;-70
2023/01/16 09:16:53;;;;;;;2.13;1.55;;;;;;;;;;6108222;19;20029;-70
2023/01/16 09:18:58;;;;;;;7.72;2.72;;;;;;;;;;6107471;19;20497;-69
2023/01/16 09:21:03;;;;;;;3.45;2.25;;;;;;;;;;6105195;19;20011;-69
2023/01/16 09:23:08;;;;;;;4.60;2.55;;;;;;;;;;6104497;19;20054;-68
2023/01/16 09:25:14;;;;;;;7.03;2.97;;;;;;;;;;6107649;19;20562;-70
2023/01/16 09:27:19;;;;;;;5.75;2.35;;;;;;;;;;6106264;19;20077;-70
2023/01/16 09:29:24;;;;;;;5.47;2.38;;;;;;;;;;6106184;19;20019;-69
2023/01/16 09:31:28;;;;;;;5.07;2.67;;;;;;;;;;6104872;19;20006;-69
2023/01/16 09:33:36;;;;;;;5.82;2.25;;;;;;;;;;6106333;19;20029;-69
2023/01/16 09:35:42;;;;;;;6.38;2.45;;;;;;;;;;6106917;19;20459;-69
2023/01/16 09:37:49;;;;;;;3.58;2.08;;;;;;;;;;6106915;19;20016;-69
2023/01/16 09:39:54;;;;;;;5.50;2.90;;;;;;;;;;6105538;19;20014;-69
2023/01/16 09:44:26;;;;;;;4.32;2.70;;;;;;;;;;6106980;19;20011;-69
2023/01/16 09:46:33;;;;;;;7.03;2.80;;;;;;;;;;6104849;19;20041;-70
2023/01/16 09:48:46;;;;;;;4.30;2.67;;;;;;;;;;6107947;19;20472;-69
2023/01/16 09:50:54;;;;;;;3.00;2.28;;;;;;;;;;6105993;19;20546;-69
2023/01/16 10:00:02;;;;;;;5.53;2.92;;;;;;;;;;6105920;19;20022;-69
2023/01/16 10:02:16;;;;;;;4.43;2.30;;;;;;;;;;6107864;19;20413;-69
2023/01/16 10:04:25;;;;;;;5.57;3.40;;;;;;;;;;6106735;19;20562;-70
2023/01/16 10:06:34;;;;;;;6.30;3.17;;;;;;;;;;6105158;19;20372;-68
2023/01/16 10:08:46;;;;;;;7.68;3.08;;;;;;;;;;6106057;19;20397;-68
2023/01/16 10:10:56;;;;;;;6.57;2.75;;;;;;;;;;6106791;19;20549;-69
2023/01/16 10:13:06;;;;;;;5.43;3.10;;;;;;;;;;6104316;19;20017;-69
2023/01/16 10:15:20;;;;;;;5.47;2.90;;;;;;;;;;6100008;19;20426;-70
2023/01/16 10:17:32;;;;;;;4.80;2.95;;;;;;;;;;6104976;19;20398;-69
2023/01/16 10:19:50;;;;;;;4.73;2.80;;;;;;;;;;6104126;19;20018;-69
2023/01/16 10:22:13;;;;;;;6.00;2.70;;;;;;;;;;6105125;19;20014;-69
2023/01/16 10:24:25;;;;;;;6.03;3.25;;;;;;;;;;6105548;19;20039;-69
2023/01/16 10:26:32;;;;;;;8.77;3.58;;;;;;;;;;6104420;19;20074;-71
2023/01/16 10:28:49;;;;;;;5.53;2.92;;;;;;;;;;6105561;19;20189;-68
2023/01/16 10:30:57;;;;;;;6.13;3.00;;;;;;;;;;6106546;19;20011;-68
2023/01/16 10:33:06;;;;;;;6.95;3.25;;;;;;;;;;6105519;19;20017;-69
2023/01/16 10:35:22;;;;;;;6.72;2.80;;;;;;;;;;6103227;19;20020;-70
2023/01/16 10:37:29;;;;;;;5.50;3.00;;;;;;;;;;6105645;19;20543;-68
2023/01/16 10:39:36;;;;;;;4.93;2.70;;;;;;;;;;6103934;19;20006;-68
2023/01/16 10:51:16;;;;;;;7.38;2.80;;;;;;;;;;6101689;19;20659;-70
2023/01/16 10:53:21;;;;;;;4.80;2.60;;;;;;;;;;6103176;19;20011;-69
2023/01/16 10:55:31;;;;;;;5.90;3.45;;;;;;;;;;6105125;19;20021;-69
2023/01/16 10:57:36;;;;;;;5.03;2.70;;;;;;;;;;6104015;19;20018;-69
2023/01/16 10:59:46;;;;;;;4.15;2.65;;;;;;;;;;6106839;19;20010;-70
2023/01/16 11:01:53;;;;;;;6.68;2.63;;;;;;;;;;6106016;19;20034;-71
2023/01/16 11:03:59;;;;;;;5.43;2.72;;;;;;;;;;6104962;19;20018;-68
2023/01/16 11:06:20;;;;;;;4.38;2.75;;;;;;;;;;6105129;19;20014;-69
2023/01/16 11:08:25;;;;;;;4.20;2.28;;;;;;;;;;6105409;19;20015;-68
2023/01/16 11:10:32;;;;;;;5.30;2.22;;;;;;;;;;6105611;19;20102;-69
2023/01/16 11:19:47;;;;;;;4.95;2.50;;;;;;;;;;6104075;19;20609;-70
2023/01/16 11:21:56;;;;;;;3.60;2.25;;;;;;;;;;6105128;19;20494;-71
2023/01/16 11:24:13;;;;;;;4.60;2.42;;;;;;;;;;6105126;19;20007;-69
2023/01/16 11:26:19;;;;;;;3.25;2.28;;;;;;;;;;6105491;19;20074;-69
2023/01/16 11:28:28;;;;;;;6.60;2.33;;;;;;;;;;6103864;19;20485;-70
2023/01/16 11:30:35;;;;;;;3.38;2.08;;;;;;;;;;6103647;19;20010;-70
2023/01/16 11:32:47;;;;;;;4.85;2.47;;;;;;;;;;6103625;19;20038;-69
2023/01/16 11:34:53;;;;;;;3.42;2.45;;;;;;;;;;6103497;19;20027;-69
2023/01/16 11:37:04;;;;;;;3.42;2.47;;;;;;;;;;6104572;19;20015;-69
2023/01/16 11:39:09;;;;;;;4.50;2.30;;;;;;;;;;6098350;19;20027;-69
2023/01/16 11:41:20;;;;;;;3.38;2.40;;;;;;;;;;6104111;19;20024;-72
2023/01/16 11:48:22;;;;;;;2.05;1.65;;;;;;;;;;6104718;19;20121;-70
2023/01/16 11:50:35;;;;;;;2.22;1.90;;;;;;;;;;6106207;19;20094;-70
2023/01/16 11:52:45;;;;;;;3.55;2.15;;;;;;;;;;6107738;19;20421;-69
2023/01/16 11:54:55;;;;;;;2.85;2.08;;;;;;;;;;6111907;19;20013;-69
2023/01/16 11:57:20;;;;;;;2.00;1.80;;;;;;;;;;6111233;19;20006;-69
2023/01/16 11:59:36;;;;;;;3.95;1.90;;;;;;;;;;6103803;19;20402;-69
2023/01/16 12:04:20;;;;;;;2.45;1.92;;;;;;;;;;6108926;19;20484;-70
2023/01/16 12:06:37;;;;;;;8.50;2.40;;;;;;;;;;6108655;19;20114;-70
2023/01/16 12:09:06;;;;;;;2.50;1.92;;;;;;;;;;6111658;19;20415;-69
2023/01/16 12:11:14;;;;;;;4.45;2.63;;;;;;;;;;6107178;19;20031;-70
2023/01/16 12:15:45;;;;;;;2.78;2.03;;;;;;;;;;6110078;19;20011;-70
2023/01/16 12:18:00;;;;;;;3.90;2.20;;;;;;;;;;6109437;19;20184;-71
2023/01/16 12:20:17;;;;;;;3.00;2.20;;;;;;;;;;6108560;19;20048;-70
2023/01/16 12:22:30;;;;;;;2.55;2.00;;;;;;;;;;6111569;19;20463;-69
2023/01/16 12:24:42;;;;;;;2.38;1.95;;;;;;;;;;6110291;19;20021;-69
2023/01/16 12:26:55;;;;;;;3.15;2.25;;;;;;;;;;6110543;19;20015;-70
2023/01/16 12:29:12;;;;;;;2.08;1.80;;;;;;;;;;6111735;19;20006;-70
2023/01/16 12:31:48;;;;;;;4.35;2.30;;;;;;;;;;6106501;19;20043;-69
2023/01/16 12:34:01;;;;;;;2.13;1.92;;;;;;;;;;6109386;19;20018;-70
2023/01/16 12:36:10;;;;;;;1.92;1.63;;;;;;;;;;6108686;19;20110;-70
2023/01/16 12:38:29;;;;;;;;;;;;;;;;;;6108580;19;20006;-71
2023/01/16 12:43:17;;;;;;;2.50;1.73;;;;;;;;;;6108686;19;19915;-71
2023/01/16 12:43:29;;;;;;;2.95;1.85;;;;;;;;;;6102498;19;21183;-70
2023/01/16 12:45:44;;;;;;;2.85;1.90;;;;;;;;;;6106917;19;20040;-71
2023/01/16 12:48:00;;;;;;;5.57;2.47;;;;;;;;;;6109385;19;20028;-71
2023/01/16 12:50:14;;;;;;;4.47;1.98;;;;;;;;;;6108529;19;20038;-71
2023/01/16 12:52:34;;;;;;;3.10;2.10;;;;;;;;;;6107366;19;20035;-71
2023/01/16 12:54:47;;;;;;;2.42;2.22;;;;;;;;;;6106496;19;20014;-70
2023/01/16 12:57:24;;;;;;;3.00;2.17;;;;;;;;;;6108764;19;20086;-69
2023/01/16 12:59:36;;;;;;;2.60;2.13;;;;;;;;;;6101911;19;20073;-70
2023/01/16 13:01:43;;;;;;;3.38;2.20;;;;;;;;;;6108573;19;20011;-69
2023/01/16 13:03:53;;;;;;;2.85;2.05;;;;;;;;;;6107603;19;20010;-70
2023/01/16 13:05:59;;;;;;;3.25;2.40;;;;;;;;;;6110211;19;20028;-71
2023/01/16 13:08:09;;;;;;;2.92;2.55;;;;;;;;;;6109067;19;20010;-70
2023/01/16 13:15:00;;;;;;;4.57;2.50;;;;;;;;;;6107143;19;20367;-71
2023/01/16 13:17:08;;;;;;;4.35;2.47;;;;;;;;;;6108493;19;20019;-70
2023/01/16 13:19:16;;;;;;;5.93;2.75;;;;;;;;;;6104335;19;20010;-71
2023/01/16 13:21:22;;;;;;;3.67;2.65;;;;;;;;;;6105255;19;20007;-71
2023/01/16 13:23:29;;;;;;;4.75;2.78;;;;;;;;;;6107706;19;20006;-70
2023/01/16 13:25:38;;;;;;;3.90;2.70;;;;;;;;;;6109347;19;20017;-71
2023/01/16 13:27:47;;;;;;;4.43;2.80;;;;;;;;;;6104969;19;20015;-71
2023/01/16 13:29:55;;;;;;;3.25;2.50;;;;;;;;;;6107351;19;20026;-71
2023/01/16 13:32:09;;;;;;;4.43;2.72;;;;;;;;;;6106821;19;20027;-71
2023/01/16 13:34:26;;;;;;;4.78;2.80;;;;;;;;;;6106208;19;20034;-70
2023/01/16 13:37:15;;;;;;;3.85;2.58;;;;;;;;;;6106652;19;20037;-70
2023/01/16 13:39:46;;;;;;;5.25;2.80;;;;;;;;;;6100534;19;20086;-70
2023/01/16 13:41:53;;;;;;;4.53;2.50;;;;;;;;;;6105903;19;20014;-69
2023/01/16 13:46:20;;;;;;;3.20;2.70;;;;;;;;;;6107655;19;20007;-70
2023/01/16 13:48:36;;;;;;;4.88;2.60;;;;;;;;;;6104138;19;20013;-71
2023/01/16 13:50:44;;;;;;;4.05;2.83;;;;;;;;;;6106192;19;20449;-70
2023/01/16 13:52:49;;;;;;;4.85;2.88;;;;;;;;;;6101565;19;20019;-70
2023/01/16 13:54:57;;;;;;;4.30;2.80;;;;;;;;;;6106779;19;20070;-70
2023/01/16 13:57:05;;;;;;;6.43;2.92;;;;;;;;;;6107090;19;20018;-69
2023/01/16 13:59:16;;;;;;;4.70;2.70;;;;;;;;;;6080557;19;20011;-69